createdAt,value
2023-05-10T00:01:34.532Z,1.65
2023-05-10T00:04:03.988Z,1.40
2023-05-10T00:06:32.625Z,1.85
2023-05-10T00:09:00.887Z,1.73
2023-05-10T00:11:29.174Z,1.25
2023-05-10T00:13:57.297Z,1.23
2023-05-10T00:16:25.483Z,1.50
2023-05-10T00:18:53.532Z,1.27
2023-05-10T00:21:23.065Z,1.30
2023-05-10T00:23:51.167Z,1.40
2023-05-10T00:26:19.261Z,0.88
2023-05-10T00:28:53.296Z,0.85
2023-05-10T00:31:21.429Z,1.23
2023-05-10T00:33:49.474Z,1.02
2023-05-10T00:36:17.553Z,1.65
2023-05-10T00:38:46.897Z,1.45
2023-05-10T00:41:15.055Z,1.00
2023-05-10T00:43:43.638Z,1.48
2023-05-10T00:46:11.993Z,0.80
2023-05-10T00:48:40.487Z,1.73
2023-05-10T00:51:08.730Z,1.13
2023-05-10T00:53:37.249Z,1.45
2023-05-10T00:56:07.428Z,1.30
2023-05-10T00:58:35.698Z,1.30
2023-05-10T01:01:03.892Z,1.50
2023-05-10T01:03:32.724Z,1.65
2023-05-10T01:06:01.152Z,1.42
2023-05-10T01:08:29.639Z,1.05
2023-05-10T01:10:58.108Z,1.30
2023-05-10T01:13:35.573Z,1.10
2023-05-10T01:16:04.464Z,1.45
2023-05-10T01:18:33.788Z,1.40
2023-05-10T01:21:12.429Z,1.40
2023-05-10T01:23:51.421Z,1.35
2023-05-10T01:26:44.360Z,1.58
2023-05-10T01:29:25.331Z,1.30
2023-05-10T01:32:17.031Z,1.13
2023-05-10T01:34:55.268Z,1.30
2023-05-10T01:37:29.499Z,1.00
2023-05-10T01:40:03.633Z,0.85
2023-05-10T01:42:41.979Z,1.42
2023-05-10T01:45:20.249Z,0.85
2023-05-10T01:47:56.376Z,1.00
2023-05-10T01:50:29.704Z,1.33
2023-05-10T01:53:00.298Z,0.95
2023-05-10T01:55:31.675Z,1.00
2023-05-10T01:58:05.638Z,0.93
2023-05-10T02:00:35.478Z,1.00
2023-05-10T02:03:08.701Z,0.93
2023-05-10T02:05:39.719Z,1.05
2023-05-10T02:08:09.859Z,0.88
2023-05-10T02:10:39.927Z,0.88
2023-05-10T02:13:12.570Z,0.82
2023-05-10T02:15:43.572Z,0.90
2023-05-10T02:18:16.439Z,1.02
2023-05-10T02:20:46.726Z,0.95
2023-05-10T02:23:16.625Z,0.90
2023-05-10T02:25:46.242Z,1.17
2023-05-10T02:28:17.908Z,0.52
2023-05-10T02:30:46.605Z,0.85
2023-05-10T02:33:16.662Z,1.00
2023-05-10T02:35:45.320Z,0.65
2023-05-10T02:38:14.976Z,0.90
2023-05-10T02:40:45.081Z,0.90
2023-05-10T02:43:16.406Z,0.65
2023-05-10T02:45:45.847Z,0.55
2023-05-10T02:48:15.635Z,0.82
2023-05-10T02:50:47.782Z,0.90
2023-05-10T02:53:21.386Z,0.43
2023-05-10T02:58:21.857Z,0.90
2023-05-10T03:00:49.949Z,0.90
2023-05-10T03:03:19.364Z,0.73
2023-05-10T03:05:47.460Z,0.55
2023-05-10T03:08:16.054Z,1.10
2023-05-10T03:11:05.170Z,0.75
2023-05-10T03:13:41.929Z,0.70
2023-05-10T03:16:14.888Z,0.60
2023-05-10T03:18:50.522Z,0.70
2023-05-10T03:21:20.801Z,0.95
2023-05-10T03:23:55.870Z,0.70
2023-05-10T03:26:28.318Z,0.95
2023-05-10T03:29:07.208Z,0.68
2023-05-10T03:31:35.730Z,0.80
2023-05-10T03:34:05.158Z,0.80
2023-05-10T03:36:33.387Z,0.63
2023-05-10T03:39:01.559Z,0.73
2023-05-10T03:41:29.682Z,0.73
2023-05-10T03:43:57.850Z,0.80
2023-05-10T03:46:26.123Z,0.90
2023-05-10T03:48:54.660Z,1.10
2023-05-10T03:51:25.243Z,0.80
2023-05-10T03:53:53.459Z,0.95
2023-05-10T03:56:21.817Z,0.80
2023-05-10T03:58:50.015Z,0.95
2023-05-10T04:01:18.084Z,0.52
2023-05-10T04:03:46.311Z,0.60
2023-05-10T04:06:15.006Z,0.68
2023-05-10T04:08:44.551Z,1.08
2023-05-10T04:11:15.002Z,0.90
2023-05-10T04:13:44.132Z,0.88
2023-05-10T04:16:12.233Z,0.80
2023-05-10T04:18:40.858Z,0.80
2023-05-10T04:21:14.515Z,0.43
2023-05-10T04:23:44.252Z,0.77
2023-05-10T04:26:12.389Z,0.57
2023-05-10T04:28:40.519Z,1.20
2023-05-10T04:31:10.316Z,0.60
2023-05-10T04:33:39.072Z,0.70
2023-05-10T04:36:07.779Z,0.82
2023-05-10T04:38:35.979Z,0.60
2023-05-10T04:41:09.764Z,0.50
2023-05-10T04:43:39.047Z,1.00
2023-05-10T04:46:08.211Z,0.70
2023-05-10T04:48:36.477Z,0.60
2023-05-10T04:51:05.832Z,0.52
2023-05-10T04:53:34.214Z,1.17
2023-05-10T04:56:02.274Z,0.55
2023-05-10T04:58:31.752Z,0.98
2023-05-10T05:00:59.827Z,1.10
2023-05-10T05:03:28.059Z,0.95
2023-05-10T05:05:56.247Z,1.02
2023-05-10T05:08:25.021Z,1.00
2023-05-10T05:10:53.162Z,1.00
2023-05-10T05:13:21.336Z,1.02
2023-05-10T05:15:50.738Z,0.70
2023-05-10T05:18:18.827Z,0.70
2023-05-10T05:20:46.882Z,1.50
2023-05-10T05:23:15.005Z,0.90
2023-05-10T05:25:43.056Z,0.77
2023-05-10T05:28:11.197Z,0.88
2023-05-10T05:30:39.286Z,0.90
2023-05-10T05:33:08.834Z,0.80
2023-05-10T05:35:36.987Z,0.90
2023-05-10T05:38:05.121Z,0.82
2023-05-10T05:40:33.220Z,0.55
2023-05-10T05:43:01.415Z,0.98
2023-05-10T05:45:29.586Z,0.98
2023-05-10T05:47:57.999Z,0.65
2023-05-10T05:50:27.395Z,0.85
2023-05-10T05:52:55.506Z,0.88
2023-05-10T05:55:23.564Z,0.75
2023-05-10T05:57:51.716Z,1.23
2023-05-10T06:00:19.902Z,1.23
2023-05-10T06:02:48.082Z,0.98
2023-05-10T06:05:16.574Z,0.77
2023-05-10T06:07:46.187Z,0.90
2023-05-10T06:10:14.236Z,1.02
2023-05-10T06:12:42.717Z,0.88
2023-05-10T06:15:11.864Z,1.10
2023-05-10T06:17:40.209Z,0.77
2023-05-10T06:20:09.803Z,0.50
2023-05-10T06:22:37.998Z,0.68
2023-05-10T06:25:08.199Z,1.55
2023-05-10T06:27:36.409Z,1.27
2023-05-10T06:30:12.426Z,1.00
2023-05-10T06:32:41.437Z,0.80
2023-05-10T06:35:10.380Z,0.80
2023-05-10T06:37:38.578Z,0.82
2023-05-10T06:40:10.166Z,0.80
2023-05-10T06:42:38.996Z,1.05
2023-05-10T06:45:07.949Z,0.77
2023-05-10T06:47:38.692Z,0.80
2023-05-10T06:50:08.098Z,1.02
2023-05-10T06:52:36.268Z,1.00
2023-05-10T06:55:05.387Z,0.63
2023-05-10T06:57:34.838Z,0.93
2023-05-10T07:00:05.110Z,0.77
2023-05-10T07:02:33.540Z,1.00
2023-05-10T07:05:03.429Z,0.80
2023-05-10T07:07:32.239Z,0.90
2023-05-10T07:10:00.539Z,0.82
2023-05-10T07:12:28.960Z,0.90
2023-05-10T07:14:58.413Z,0.77
2023-05-10T07:17:26.888Z,0.70
2023-05-10T07:19:55.126Z,0.93
2023-05-10T07:22:23.257Z,1.00
2023-05-10T07:24:51.388Z,0.85
2023-05-10T07:27:19.542Z,0.93
2023-05-10T07:29:47.667Z,0.68
2023-05-10T07:32:17.183Z,1.00
2023-05-10T07:34:45.306Z,0.45
2023-05-10T07:37:13.603Z,1.00
2023-05-10T07:39:41.706Z,1.58
2023-05-10T07:42:09.895Z,0.93
2023-05-10T07:44:37.945Z,1.27
2023-05-10T07:47:06.155Z,0.93
2023-05-10T07:49:36.671Z,0.90
2023-05-10T07:52:05.947Z,1.13
2023-05-10T07:54:34.817Z,0.93
2023-05-10T07:57:03.091Z,0.95
2023-05-10T07:59:31.095Z,1.10
2023-05-10T08:01:59.562Z,1.23
2023-05-10T08:04:27.738Z,1.23
2023-05-10T08:06:57.213Z,0.95
2023-05-10T08:09:25.617Z,1.52
2023-05-10T08:11:53.757Z,1.17
2023-05-10T08:14:21.954Z,1.27
2023-05-10T08:16:50.133Z,1.00
2023-05-10T08:19:20.127Z,1.20
2023-05-10T08:21:48.252Z,0.80
2023-05-10T08:24:17.673Z,1.08
2023-05-10T08:26:45.850Z,0.73
2023-05-10T08:29:13.895Z,0.73
2023-05-10T08:31:42.088Z,0.68
2023-05-10T08:34:10.202Z,0.77
2023-05-10T08:36:38.301Z,1.08
2023-05-10T08:39:13.526Z,1.77
2023-05-10T08:41:50.123Z,0.88
2023-05-10T08:44:19.281Z,1.33
2023-05-10T08:46:48.975Z,1.02
2023-05-10T08:49:19.899Z,1.00
2023-05-10T08:51:53.893Z,1.00
2023-05-10T08:54:23.356Z,1.10
2023-05-10T08:56:52.867Z,1.00
2023-05-10T08:59:21.201Z,1.30
2023-05-10T09:01:50.488Z,1.00
2023-05-10T09:04:18.779Z,0.90
2023-05-10T09:06:46.994Z,0.93
2023-05-10T09:09:15.833Z,0.63
2023-05-10T09:11:44.166Z,0.80
2023-05-10T09:14:15.158Z,0.60
2023-05-10T09:16:43.455Z,0.80
2023-05-10T09:19:11.861Z,0.50
2023-05-10T09:21:40.289Z,0.90
2023-05-10T09:24:09.271Z,0.50
2023-05-10T09:26:38.196Z,0.80
2023-05-10T09:29:07.448Z,0.90
2023-05-10T09:31:48.969Z,0.73
2023-05-10T09:34:20.122Z,1.02
2023-05-10T09:36:56.306Z,0.77
2023-05-10T09:39:33.753Z,0.80
2023-05-10T09:42:04.684Z,0.80
2023-05-10T09:44:33.748Z,0.98
2023-05-10T09:47:03.830Z,0.65
2023-05-10T09:49:34.309Z,1.05
2023-05-10T09:52:04.535Z,0.80
2023-05-10T09:54:33.339Z,0.85
2023-05-10T09:57:01.722Z,0.95
2023-05-10T09:59:31.369Z,1.35
2023-05-10T10:02:01.886Z,0.82
2023-05-10T10:04:31.726Z,1.25
2023-05-10T10:07:02.587Z,1.10
2023-05-10T10:09:31.362Z,0.77
2023-05-10T10:11:59.799Z,1.13
2023-05-10T10:14:28.364Z,0.95
2023-05-10T10:17:07.638Z,0.60
2023-05-10T10:19:38.567Z,0.98
2023-05-10T10:22:07.312Z,1.20
2023-05-10T10:24:35.825Z,1.25
2023-05-10T10:27:15.514Z,1.10
2023-05-10T10:29:52.079Z,1.10
2023-05-10T10:32:32.259Z,0.80
2023-05-10T10:35:02.100Z,0.77
2023-05-10T10:37:45.552Z,0.95
2023-05-10T10:40:34.796Z,0.82
2023-05-10T10:43:25.021Z,0.70
2023-05-10T10:46:12.429Z,0.70
2023-05-10T10:48:40.690Z,0.57
2023-05-10T10:51:12.208Z,0.63
2023-05-10T10:53:42.445Z,0.80
2023-05-10T10:56:12.637Z,0.85
2023-05-10T10:58:41.459Z,0.82
2023-05-10T11:01:15.636Z,0.50
2023-05-10T11:04:17.811Z,0.63
2023-05-10T11:06:47.345Z,0.40
2023-05-10T11:09:15.863Z,0.60
2023-05-10T11:11:51.975Z,1.02
2023-05-10T11:14:23.393Z,0.95
2023-05-10T11:16:52.226Z,0.90
2023-05-10T11:19:21.287Z,0.93
2023-05-10T11:21:52.507Z,0.40
2023-05-10T11:24:23.292Z,0.60
2023-05-10T11:26:53.239Z,0.45
2023-05-10T11:29:22.517Z,0.70
2023-05-10T11:31:51.753Z,0.77
2023-05-10T11:34:26.987Z,1.10
2023-05-10T11:36:57.528Z,1.10
2023-05-10T11:39:28.556Z,0.70
2023-05-10T11:41:56.802Z,0.32
2023-05-10T11:44:25.958Z,0.40
2023-05-10T11:46:54.276Z,0.40
2023-05-10T11:49:25.093Z,0.30
2023-05-10T11:51:53.246Z,0.40
2023-05-10T11:54:22.571Z,0.35
2023-05-10T11:56:52.343Z,0.30
2023-05-10T11:59:21.035Z,0.60
2023-05-10T12:01:49.318Z,0.60
2023-05-10T12:04:17.880Z,0.40
2023-05-10T12:06:47.562Z,0.38
2023-05-10T12:09:17.637Z,0.50
2023-05-10T12:11:48.835Z,0.30
2023-05-10T12:14:17.622Z,0.60
2023-05-10T12:16:45.857Z,0.73
2023-05-10T12:19:14.099Z,0.30
2023-05-10T12:21:42.516Z,0.30
2023-05-10T12:24:11.510Z,0.57
2023-05-10T12:26:39.703Z,0.57
2023-05-10T12:29:17.880Z,0.60
2023-05-10T12:31:54.518Z,0.30
2023-05-10T12:34:26.810Z,1.02
2023-05-10T12:36:55.501Z,0.65
2023-05-10T12:39:23.580Z,0.77
2023-05-10T12:41:51.721Z,0.60
2023-05-10T12:44:21.421Z,0.50
2023-05-10T12:46:49.548Z,0.47
2023-05-10T12:49:17.823Z,0.43
2023-05-10T12:51:46.097Z,0.52
2023-05-10T12:54:14.177Z,0.45
2023-05-10T12:56:43.718Z,0.80
2023-05-10T12:59:11.769Z,0.85
2023-05-10T13:01:41.434Z,1.00
2023-05-10T13:04:09.710Z,0.88
2023-05-10T13:06:37.934Z,0.77
2023-05-10T13:09:05.985Z,1.02
2023-05-10T13:11:34.114Z,0.68
2023-05-10T13:14:04.143Z,1.17
2023-05-10T13:16:32.606Z,1.00
2023-05-10T13:19:02.112Z,1.10
2023-05-10T13:21:30.458Z,0.77
2023-05-10T13:23:58.915Z,0.85
2023-05-10T13:26:27.384Z,1.10
2023-05-10T13:28:56.661Z,0.63
2023-05-10T13:31:25.013Z,0.85
2023-05-10T13:33:53.204Z,1.02
2023-05-10T13:36:23.848Z,0.65
2023-05-10T13:38:51.928Z,0.50
2023-05-10T13:41:20.141Z,0.50
2023-05-10T13:43:49.689Z,1.08
2023-05-10T13:46:18.216Z,0.70
2023-05-10T13:48:46.307Z,0.82
2023-05-10T13:51:14.398Z,0.52
2023-05-10T13:53:43.728Z,0.95
2023-05-10T13:56:11.840Z,1.00
2023-05-10T13:58:39.830Z,0.90
2023-05-10T14:01:07.921Z,0.60
2023-05-10T14:03:36.048Z,1.05
2023-05-10T14:06:04.272Z,1.13
2023-05-10T14:08:32.371Z,0.90
2023-05-10T14:11:01.749Z,0.70
2023-05-10T14:13:29.898Z,0.95
2023-05-10T14:15:58.045Z,0.30
2023-05-10T14:18:26.869Z,0.40
2023-05-10T14:20:55.828Z,0.20
2023-05-10T14:23:25.811Z,0.30
2023-05-10T14:25:54.287Z,0.50
2023-05-10T14:28:26.724Z,0.30
2023-05-10T14:33:28.673Z,0.17
2023-05-10T14:35:59.767Z,0.20
2023-05-10T14:38:29.004Z,0.20
2023-05-10T14:40:57.208Z,0.28
2023-05-10T14:43:28.480Z,0.20
2023-05-10T14:45:56.558Z,0.10
2023-05-10T14:48:24.574Z,0.17
2023-05-10T14:50:53.795Z,0.20
2023-05-10T14:53:22.037Z,0.00
2023-05-10T14:55:50.172Z,0.30
2023-05-10T14:58:18.641Z,0.20
2023-05-10T15:00:48.279Z,0.03
2023-05-10T15:03:17.073Z,0.10
2023-05-10T15:05:45.742Z,0.00
2023-05-10T15:08:13.830Z,0.10
2023-05-10T15:10:42.669Z,0.38
2023-05-10T15:13:10.750Z,0.10
2023-05-10T15:15:38.990Z,0.00
2023-05-10T15:18:08.622Z,0.30
2023-05-10T15:20:37.131Z,0.20
2023-05-10T15:23:05.244Z,0.13
2023-05-10T15:25:35.857Z,0.25
2023-05-10T15:28:04.322Z,0.40
2023-05-10T15:30:32.446Z,0.40
2023-05-10T15:33:00.829Z,0.73
2023-05-10T15:35:30.274Z,0.15
2023-05-10T15:37:58.766Z,0.10
2023-05-10T15:40:26.843Z,0.35
2023-05-10T15:42:54.935Z,0.68
2023-05-10T15:45:23.361Z,0.30
2023-05-10T15:47:51.652Z,0.52
2023-05-10T15:50:19.941Z,0.52
2023-05-10T15:52:49.596Z,0.88
2023-05-10T15:55:18.375Z,0.35
2023-05-10T15:57:47.135Z,0.32
2023-05-10T16:00:15.716Z,0.30
2023-05-10T16:02:43.944Z,0.20
2023-05-10T16:05:12.343Z,0.32
2023-05-10T16:07:42.064Z,0.40
2023-05-10T16:10:12.984Z,0.40
2023-05-10T16:12:41.829Z,0.40
2023-05-10T16:15:10.738Z,0.50
2023-05-10T16:17:38.991Z,0.50
2023-05-10T16:20:08.329Z,0.55
2023-05-10T16:22:37.086Z,0.63
2023-05-10T16:25:05.778Z,0.85
2023-05-10T16:27:35.290Z,1.20
2023-05-10T16:30:04.068Z,0.90
2023-05-10T16:32:32.390Z,1.08
2023-05-10T16:35:00.728Z,0.88
2023-05-10T16:37:29.760Z,0.90
2023-05-10T16:39:58.005Z,1.20
2023-05-10T16:42:26.266Z,0.95
2023-05-10T16:44:56.873Z,1.42
2023-05-10T16:47:26.976Z,1.13
2023-05-10T16:49:55.300Z,0.52
2023-05-10T16:52:24.107Z,0.63
2023-05-10T16:54:52.296Z,0.82
2023-05-10T16:57:20.376Z,0.75
2023-05-10T16:59:48.487Z,0.52
2023-05-10T17:02:18.026Z,0.70
2023-05-10T17:04:46.691Z,0.68
2023-05-10T17:07:15.148Z,0.47
2023-05-10T17:09:43.946Z,0.35
2023-05-10T17:12:12.374Z,0.30
2023-05-10T17:14:40.996Z,0.43
2023-05-10T17:17:09.387Z,0.30
2023-05-10T17:19:38.986Z,0.30
2023-05-10T17:22:07.104Z,0.30
2023-05-10T17:24:35.484Z,0.20
2023-05-10T17:27:04.473Z,0.20
2023-05-10T17:29:33.067Z,0.30
2023-05-10T17:32:01.267Z,0.17
2023-05-10T17:34:29.679Z,0.32
2023-05-10T17:36:59.221Z,0.30
2023-05-10T17:39:27.412Z,0.40
2023-05-10T17:41:55.455Z,0.30
2023-05-10T17:44:25.486Z,0.20
2023-05-10T17:46:53.616Z,0.40
2023-05-10T17:49:21.887Z,0.60
2023-05-10T17:51:50.377Z,0.45
2023-05-10T17:54:19.878Z,0.40
2023-05-10T17:56:47.996Z,0.40
2023-05-10T17:59:16.082Z,0.43
2023-05-10T18:01:44.436Z,0.52
2023-05-10T18:04:12.675Z,0.60
2023-05-10T18:06:41.615Z,0.30
2023-05-10T18:09:09.685Z,0.82
2023-05-10T18:11:39.891Z,0.70
2023-05-10T18:14:08.027Z,0.60
2023-05-10T18:16:36.325Z,0.50
2023-05-10T18:19:04.532Z,0.68
2023-05-10T18:21:32.763Z,0.50
2023-05-10T18:24:00.863Z,0.43
2023-05-10T18:26:29.053Z,0.55
2023-05-10T18:29:01.383Z,0.80
2023-05-10T18:31:30.091Z,0.50
2023-05-10T18:33:58.338Z,0.55
2023-05-10T18:36:28.243Z,0.85
2023-05-10T18:38:56.414Z,0.40
2023-05-10T18:41:26.865Z,0.60
2023-05-10T18:43:55.058Z,0.50
2023-05-10T18:46:24.538Z,1.08
2023-05-10T18:48:53.083Z,0.50
2023-05-10T18:51:22.279Z,0.70
2023-05-10T18:53:50.462Z,0.40
2023-05-10T18:56:18.946Z,0.68
2023-05-10T18:58:47.134Z,0.57
2023-05-10T19:01:15.442Z,0.60
2023-05-10T19:03:44.915Z,0.60
2023-05-10T19:06:13.103Z,0.70
2023-05-10T19:08:41.160Z,0.63
2023-05-10T19:11:09.358Z,0.57
2023-05-10T19:13:37.575Z,0.40
2023-05-10T19:16:06.969Z,0.73
2023-05-10T19:18:35.260Z,0.70
2023-05-10T19:21:09.811Z,0.50
2023-05-10T19:23:40.249Z,0.45
2023-05-10T19:26:09.382Z,0.80
2023-05-10T19:28:37.709Z,1.02
2023-05-10T19:31:06.306Z,0.68
2023-05-10T19:33:34.564Z,0.30
2023-05-10T19:36:04.385Z,0.60
2023-05-10T19:38:32.534Z,0.60
2023-05-10T19:41:00.831Z,0.40
2023-05-10T19:43:32.750Z,0.40
2023-05-10T19:46:03.740Z,0.35
2023-05-10T19:48:32.641Z,0.47
2023-05-10T19:51:03.336Z,0.60
2023-05-10T19:53:33.362Z,0.32
2023-05-10T19:56:04.566Z,0.40
2023-05-10T19:58:33.294Z,0.40
2023-05-10T20:01:01.566Z,0.30
2023-05-10T20:03:30.104Z,0.60
2023-05-10T20:05:58.235Z,0.70
2023-05-10T20:08:26.492Z,0.40
2023-05-10T20:10:57.859Z,0.60
2023-05-10T20:13:26.089Z,0.30
2023-05-10T20:15:57.069Z,0.35
2023-05-10T20:18:26.079Z,0.43
2023-05-10T20:20:56.111Z,0.43
2023-05-10T20:23:24.349Z,0.22
2023-05-10T20:25:52.854Z,0.40
2023-05-10T20:28:25.368Z,0.40
2023-05-10T20:30:54.906Z,0.50
2023-05-10T20:33:23.742Z,0.30
2023-05-10T20:35:52.528Z,0.47
2023-05-10T20:38:21.454Z,0.30
2023-05-10T20:40:50.300Z,0.47
2023-05-10T20:43:18.850Z,0.50
2023-05-10T20:45:48.597Z,0.68
2023-05-10T20:48:17.535Z,0.80
2023-05-10T20:50:45.788Z,0.47
2023-05-10T20:53:14.819Z,0.50
2023-05-10T20:55:42.933Z,0.57
2023-05-10T20:58:11.029Z,0.32
2023-05-10T21:00:39.208Z,0.43
2023-05-10T21:03:08.628Z,0.55
2023-05-10T21:05:37.190Z,0.73
2023-05-10T21:08:05.446Z,0.55
2023-05-10T21:10:33.502Z,0.80
2023-05-10T21:13:01.542Z,0.40
2023-05-10T21:15:29.711Z,0.68
2023-05-10T21:17:58.162Z,0.47
2023-05-10T21:20:27.599Z,0.60
2023-05-10T21:22:55.619Z,1.00
2023-05-10T21:25:24.040Z,0.60
2023-05-10T21:27:52.331Z,0.50
2023-05-10T21:30:20.857Z,0.73
2023-05-10T21:32:49.065Z,0.85
2023-05-10T21:35:17.430Z,0.77
2023-05-10T21:37:47.056Z,0.70
2023-05-10T21:40:15.834Z,0.80
2023-05-10T21:42:44.318Z,0.60
2023-05-10T21:45:13.105Z,0.73
2023-05-10T21:47:41.232Z,0.65
2023-05-10T21:50:10.395Z,0.70
2023-05-10T21:52:38.957Z,0.50
2023-05-10T21:55:10.017Z,1.05
2023-05-10T21:57:38.280Z,1.02
2023-05-10T22:00:07.612Z,0.55
2023-05-10T22:02:35.842Z,0.77
2023-05-10T22:05:04.188Z,0.75
2023-05-10T22:07:32.815Z,0.80
2023-05-10T22:10:00.986Z,0.88
2023-05-10T22:12:30.484Z,0.88
2023-05-10T22:15:09.482Z,0.82
2023-05-10T22:17:40.294Z,0.70
2023-05-10T22:20:09.760Z,0.90
2023-05-10T22:22:38.133Z,0.80
2023-05-10T22:25:07.318Z,1.40
2023-05-10T22:27:36.925Z,1.00
2023-05-10T22:30:05.627Z,1.13
2023-05-10T22:32:34.332Z,0.70
2023-05-10T22:35:04.022Z,0.65
2023-05-10T22:37:32.089Z,0.90
2023-05-10T22:40:00.285Z,0.95
2023-05-10T22:42:28.458Z,0.95
2023-05-10T22:44:58.835Z,0.80
2023-05-10T22:47:27.148Z,1.10
2023-05-10T22:49:56.227Z,0.75
2023-05-10T22:52:24.325Z,1.15
2023-05-10T22:54:52.464Z,0.82
2023-05-10T22:57:20.647Z,0.82
2023-05-10T22:59:49.341Z,0.95
2023-05-10T23:02:18.834Z,0.70
2023-05-10T23:04:47.658Z,1.00
2023-05-10T23:07:15.791Z,0.85
2023-05-10T23:09:44.062Z,1.33
2023-05-10T23:12:12.146Z,1.02
2023-05-10T23:14:40.426Z,1.15
2023-05-10T23:17:08.594Z,0.80
2023-05-10T23:19:38.098Z,0.90
2023-05-10T23:22:06.270Z,0.68
2023-05-10T23:24:34.532Z,1.00
2023-05-10T23:27:02.621Z,0.90
2023-05-10T23:29:32.127Z,0.88
2023-05-10T23:32:00.331Z,0.70
2023-05-10T23:34:28.622Z,0.80
2023-05-10T23:36:58.191Z,0.98
2023-05-10T23:39:26.453Z,0.40
2023-05-10T23:41:54.631Z,0.55
2023-05-10T23:44:22.797Z,0.70
2023-05-10T23:46:51.388Z,0.45
2023-05-10T23:49:19.559Z,0.35
2023-05-10T23:51:47.730Z,0.40
2023-05-10T23:54:17.246Z,0.57
2023-05-10T23:56:45.405Z,0.70
2023-05-10T23:59:13.678Z,0.75
